Dubuque Regional Airport
KDBQ : rendu visible

Aérodrome :











RETROUVEZ-NOUS SUR...

 
LOGIN :

S'inscrire | Disclaimer

   EN    FR    IT 

 









Légende :    VFR   VFR Marginal   IFR   IFR Intensif   IFR Très Intensif
Visi : 
Plafond : 
>= 8 km
>= 3000ft
5 à 8 km
1000 à 3000 ft
1500m à 5 km
500 à 1000 ft
800 à 1500m
200 à 500 ft
< 800m
< 200 ft
Symboles :   Orages  Brouillard  Fortes neiges  Fortes précipitations  Vent > 20 kt






- Altitude de l'aérodrome : 1077 ft
- Code IATA : DBQ


KDBQ - Dubuque Regional

DERNIER METAR :
  • 072353Z 16011KT 10SM FEW055 25/17 A3007 RMK AO2 SLP178 T02500172 10272 20250 58011

METARs EXPIRÉS :
  • 072253Z 15011KT 10SM CLR 26/17 A3009 RMK AO2 SLP185 T02610172
  • 072153Z 16013KT 10SM CLR 27/18 A3010 RMK AO2 SLP186 T02670178

TAF KDBQ
Valide du 08 à 00h jusqu'au 09 à 00h UTC


072329Z 0800/0824 16010KT P6SM FEW250
FM081500 19011KT P6SM BKN027
FM081600 19011KT P6SM BKN040
FIR KZAU / Amérique du Nord



MET'MAP, la Météo Aéronautique d'un coup d'oeil ! - Copyright ORBIFLY Décembre 2007 - Disclaimer

ORBIFLY MET'MAP TEAM :

Programmation & Développement : Alexandra Zaïnal
Sur une idée originale de : Baudouin d'Aumeries
Assistance à la programmation : Marc-Olivier Méhu
Soutien technique & logistique : Manuel Goepfert

Contact : metmap@orbifly.com




SOURCES & CREDITS :

   NOAA       Earth
Advisory